sensor_id;sensor_type;location;lat;lon;timestamp;temperature;humidity
75321;DHT22;68337;52.196;5.660;2023-04-25T00:01:48;5.80;99.90
75321;DHT22;68337;52.196;5.660;2023-04-25T00:04:14;5.70;99.90
75321;DHT22;68337;52.196;5.660;2023-04-25T00:06:39;5.70;99.90
75321;DHT22;68337;52.196;5.660;2023-04-25T00:09:05;5.70;99.90
75321;DHT22;68337;52.196;5.660;2023-04-25T00:11:36;5.60;99.90
75321;DHT22;68337;52.196;5.660;2023-04-25T00:14:02;5.50;99.90
75321;DHT22;68337;52.196;5.660;2023-04-25T00:16:29;5.50;99.90
75321;DHT22;68337;52.196;5.660;2023-04-25T00:18:56;5.40;99.90
75321;DHT22;68337;52.196;5.660;2023-04-25T00:21:22;5.40;99.90
75321;DHT22;68337;52.196;5.660;2023-04-25T00:23:50;5.30;99.90
75321;DHT22;68337;52.196;5.660;2023-04-25T00:26:15;5.30;99.90
75321;DHT22;68337;52.196;5.660;2023-04-25T00:28:41;5.20;99.90
75321;DHT22;68337;52.196;5.660;2023-04-25T00:31:07;5.20;99.90
75321;DHT22;68337;52.196;5.660;2023-04-25T00:33:32;5.10;99.90
75321;DHT22;68337;52.196;5.660;2023-04-25T00:35:58;4.90;99.90
75321;DHT22;68337;52.196;5.660;2023-04-25T00:38:24;4.90;99.90
75321;DHT22;68337;52.196;5.660;2023-04-25T00:40:49;4.90;99.90
75321;DHT22;68337;52.196;5.660;2023-04-25T00:43:15;4.90;99.90
75321;DHT22;68337;52.196;5.660;2023-04-25T00:45:41;4.90;99.90
75321;DHT22;68337;52.196;5.660;2023-04-25T00:48:08;4.90;99.90
75321;DHT22;68337;52.196;5.660;2023-04-25T00:50:35;4.90;99.90
75321;DHT22;68337;52.196;5.660;2023-04-25T00:53:02;4.90;99.90
75321;DHT22;68337;52.196;5.660;2023-04-25T00:55:29;4.80;99.90
75321;DHT22;68337;52.196;5.660;2023-04-25T00:57:57;4.80;99.90
75321;DHT22;68337;52.196;5.660;2023-04-25T01:00:23;4.80;99.90
75321;DHT22;68337;52.196;5.660;2023-04-25T01:02:49;4.80;99.90
75321;DHT22;68337;52.196;5.660;2023-04-25T01:05:15;4.70;99.90
75321;DHT22;68337;52.196;5.660;2023-04-25T01:07:41;4.70;99.90
75321;DHT22;68337;52.196;5.660;2023-04-25T01:10:07;4.70;99.90
75321;DHT22;68337;52.196;5.660;2023-04-25T01:12:33;4.60;99.90
75321;DHT22;68337;52.196;5.660;2023-04-25T01:14:59;4.60;99.90
75321;DHT22;68337;52.196;5.660;2023-04-25T01:17:25;4.60;99.90
75321;DHT22;68337;52.196;5.660;2023-04-25T01:19:51;4.50;99.90
75321;DHT22;68337;52.196;5.660;2023-04-25T01:22:17;4.40;99.90
75321;DHT22;68337;52.196;5.660;2023-04-25T01:24:43;4.40;99.90
75321;DHT22;68337;52.196;5.660;2023-04-25T01:27:09;4.30;99.90
75321;DHT22;68337;52.196;5.660;2023-04-25T01:29:36;4.20;99.90
75321;DHT22;68337;52.196;5.660;2023-04-25T01:32:02;4.10;99.90
75321;DHT22;68337;52.196;5.660;2023-04-25T01:34:28;4.00;99.90
75321;DHT22;68337;52.196;5.660;2023-04-25T01:36:54;4.00;99.90
75321;DHT22;68337;52.196;5.660;2023-04-25T01:39:21;4.10;99.90
75321;DHT22;68337;52.196;5.660;2023-04-25T01:41:47;4.10;99.90
75321;DHT22;68337;52.196;5.660;2023-04-25T01:44:14;4.00;99.90
75321;DHT22;68337;52.196;5.660;2023-04-25T01:46:40;4.00;99.90
75321;DHT22;68337;52.196;5.660;2023-04-25T01:49:06;4.00;99.90
75321;DHT22;68337;52.196;5.660;2023-04-25T01:51:32;4.00;99.90
75321;DHT22;68337;52.196;5.660;2023-04-25T01:53:58;4.00;99.90
75321;DHT22;68337;52.196;5.660;2023-04-25T01:56:24;3.90;99.90
75321;DHT22;68337;52.196;5.660;2023-04-25T01:58:51;3.90;99.90
75321;DHT22;68337;52.196;5.660;2023-04-25T02:01:17;3.80;99.90
75321;DHT22;68337;52.196;5.660;2023-04-25T02:03:43;3.70;99.90
75321;DHT22;68337;52.196;5.660;2023-04-25T02:06:08;3.80;99.90
75321;DHT22;68337;52.196;5.660;2023-04-25T02:08:34;3.70;99.90
75321;DHT22;68337;52.196;5.660;2023-04-25T02:11:00;3.60;99.90
75321;DHT22;68337;52.196;5.660;2023-04-25T02:13:25;3.60;99.90
75321;DHT22;68337;52.196;5.660;2023-04-25T02:15:51;3.60;99.90
75321;DHT22;68337;52.196;5.660;2023-04-25T02:18:17;3.60;99.90
75321;DHT22;68337;52.196;5.660;2023-04-25T02:20:43;3.60;99.90
75321;DHT22;68337;52.196;5.660;2023-04-25T02:23:09;3.50;99.90
75321;DHT22;68337;52.196;5.660;2023-04-25T02:25:34;3.40;99.90
75321;DHT22;68337;52.196;5.660;2023-04-25T02:28:00;3.40;99.90
75321;DHT22;68337;52.196;5.660;2023-04-25T02:30:26;3.40;99.90
75321;DHT22;68337;52.196;5.660;2023-04-25T02:32:52;3.40;99.90
75321;DHT22;68337;52.196;5.660;2023-04-25T02:35:17;3.40;99.90
75321;DHT22;68337;52.196;5.660;2023-04-25T02:37:43;3.30;99.90
75321;DHT22;68337;52.196;5.660;2023-04-25T02:40:09;3.20;99.90
75321;DHT22;68337;52.196;5.660;2023-04-25T02:42:35;3.10;99.90
75321;DHT22;68337;52.196;5.660;2023-04-25T02:45:01;3.10;99.90
75321;DHT22;68337;52.196;5.660;2023-04-25T02:47:27;3.00;99.90
75321;DHT22;68337;52.196;5.660;2023-04-25T02:49:53;3.00;99.90
75321;DHT22;68337;52.196;5.660;2023-04-25T02:52:19;3.00;99.90
75321;DHT22;68337;52.196;5.660;2023-04-25T02:54:44;2.90;99.90
75321;DHT22;68337;52.196;5.660;2023-04-25T02:57:10;2.90;99.90
75321;DHT22;68337;52.196;5.660;2023-04-25T02:59:36;2.80;99.90
75321;DHT22;68337;52.196;5.660;2023-04-25T03:02:01;2.80;99.90
75321;DHT22;68337;52.196;5.660;2023-04-25T03:04:27;2.80;99.90
75321;DHT22;68337;52.196;5.660;2023-04-25T03:06:53;2.80;99.90
75321;DHT22;68337;52.196;5.660;2023-04-25T03:09:19;2.80;99.90
75321;DHT22;68337;52.196;5.660;2023-04-25T03:11:45;2.70;99.90
75321;DHT22;68337;52.196;5.660;2023-04-25T03:14:12;2.70;99.90
75321;DHT22;68337;52.196;5.660;2023-04-25T03:16:38;2.70;99.90
75321;DHT22;68337;52.196;5.660;2023-04-25T03:19:04;2.70;99.90
75321;DHT22;68337;52.196;5.660;2023-04-25T03:21:33;2.70;99.90
75321;DHT22;68337;52.196;5.660;2023-04-25T03:24:00;2.60;99.90
75321;DHT22;68337;52.196;5.660;2023-04-25T03:26:26;2.60;99.90
75321;DHT22;68337;52.196;5.660;2023-04-25T03:28:52;2.60;99.90
75321;DHT22;68337;52.196;5.660;2023-04-25T03:31:17;2.60;99.90
75321;DHT22;68337;52.196;5.660;2023-04-25T03:33:43;2.70;99.90
75321;DHT22;68337;52.196;5.660;2023-04-25T03:36:09;2.60;99.90
75321;DHT22;68337;52.196;5.660;2023-04-25T03:38:35;2.60;99.90
75321;DHT22;68337;52.196;5.660;2023-04-25T03:41:01;2.50;99.90
75321;DHT22;68337;52.196;5.660;2023-04-25T03:43:27;2.50;99.90
75321;DHT22;68337;52.196;5.660;2023-04-25T03:45:53;2.50;99.90
75321;DHT22;68337;52.196;5.660;2023-04-25T03:48:18;2.40;99.90
75321;DHT22;68337;52.196;5.660;2023-04-25T03:50:47;2.50;99.90
75321;DHT22;68337;52.196;5.660;2023-04-25T03:53:12;2.50;99.90
75321;DHT22;68337;52.196;5.660;2023-04-25T03:55:38;2.50;99.90
75321;DHT22;68337;52.196;5.660;2023-04-25T03:58:04;2.50;99.90
75321;DHT22;68337;52.196;5.660;2023-04-25T04:00:30;2.50;99.90
75321;DHT22;68337;52.196;5.660;2023-04-25T04:02:56;2.50;99.90
75321;DHT22;68337;52.196;5.660;2023-04-25T04:05:21;2.50;99.90
75321;DHT22;68337;52.196;5.660;2023-04-25T04:07:47;2.50;99.90
75321;DHT22;68337;52.196;5.660;2023-04-25T04:10:13;2.40;99.90
75321;DHT22;68337;52.196;5.660;2023-04-25T04:12:39;2.50;99.90
75321;DHT22;68337;52.196;5.660;2023-04-25T04:15:05;2.60;99.90
75321;DHT22;68337;52.196;5.660;2023-04-25T04:17:32;2.60;99.90
75321;DHT22;68337;52.196;5.660;2023-04-25T04:19:58;2.70;99.90
75321;DHT22;68337;52.196;5.660;2023-04-25T04:22:24;2.80;99.90
75321;DHT22;68337;52.196;5.660;2023-04-25T04:24:50;2.80;99.90
75321;DHT22;68337;52.196;5.660;2023-04-25T04:27:17;2.90;99.90
75321;DHT22;68337;52.196;5.660;2023-04-25T04:29:43;2.90;99.90
75321;DHT22;68337;52.196;5.660;2023-04-25T04:32:09;3.00;99.90
75321;DHT22;68337;52.196;5.660;2023-04-25T04:34:35;3.10;99.90
75321;DHT22;68337;52.196;5.660;2023-04-25T04:37:01;3.10;99.90
75321;DHT22;68337;52.196;5.660;2023-04-25T04:39:27;3.20;99.90
75321;DHT22;68337;52.196;5.660;2023-04-25T04:41:52;3.30;99.90
75321;DHT22;68337;52.196;5.660;2023-04-25T04:44:18;3.30;99.90
75321;DHT22;68337;52.196;5.660;2023-04-25T04:46:45;3.40;99.90
75321;DHT22;68337;52.196;5.660;2023-04-25T04:49:12;3.40;99.90
75321;DHT22;68337;52.196;5.660;2023-04-25T04:51:39;3.50;99.90
75321;DHT22;68337;52.196;5.660;2023-04-25T04:54:06;3.50;99.90
75321;DHT22;68337;52.196;5.660;2023-04-25T04:56:32;3.60;99.90
75321;DHT22;68337;52.196;5.660;2023-04-25T04:58:58;3.60;99.90
75321;DHT22;68337;52.196;5.660;2023-04-25T05:01:25;3.70;99.90
75321;DHT22;68337;52.196;5.660;2023-04-25T05:03:51;3.70;99.90
75321;DHT22;68337;52.196;5.660;2023-04-25T05:06:19;3.80;99.90
75321;DHT22;68337;52.196;5.660;2023-04-25T05:08:45;3.90;99.90
75321;DHT22;68337;52.196;5.660;2023-04-25T05:11:10;3.90;99.90
75321;DHT22;68337;52.196;5.660;2023-04-25T05:13:36;4.00;99.90
75321;DHT22;68337;52.196;5.660;2023-04-25T05:16:02;4.00;99.90
75321;DHT22;68337;52.196;5.660;2023-04-25T05:18:28;4.10;99.90
75321;DHT22;68337;52.196;5.660;2023-04-25T05:20:54;4.10;99.90
75321;DHT22;68337;52.196;5.660;2023-04-25T05:23:19;4.10;99.90
75321;DHT22;68337;52.196;5.660;2023-04-25T05:25:45;4.20;99.90
75321;DHT22;68337;52.196;5.660;2023-04-25T05:28:12;4.30;99.90
75321;DHT22;68337;52.196;5.660;2023-04-25T05:30:38;4.40;99.90
75321;DHT22;68337;52.196;5.660;2023-04-25T05:33:04;4.40;99.90
75321;DHT22;68337;52.196;5.660;2023-04-25T05:35:30;4.50;99.90
75321;DHT22;68337;52.196;5.660;2023-04-25T05:37:55;4.60;99.90
75321;DHT22;68337;52.196;5.660;2023-04-25T05:40:21;4.60;99.90
75321;DHT22;68337;52.196;5.660;2023-04-25T05:42:47;4.70;99.90
75321;DHT22;68337;52.196;5.660;2023-04-25T05:45:12;4.80;99.90
75321;DHT22;68337;52.196;5.660;2023-04-25T05:47:38;4.80;99.90
75321;DHT22;68337;52.196;5.660;2023-04-25T05:50:04;4.80;99.90
75321;DHT22;68337;52.196;5.660;2023-04-25T05:52:30;5.00;99.90
75321;DHT22;68337;52.196;5.660;2023-04-25T05:54:56;5.00;99.90
75321;DHT22;68337;52.196;5.660;2023-04-25T05:57:22;5.10;99.90
75321;DHT22;68337;52.196;5.660;2023-04-25T05:59:48;5.20;99.90
75321;DHT22;68337;52.196;5.660;2023-04-25T06:02:14;5.30;99.90
75321;DHT22;68337;52.196;5.660;2023-04-25T06:04:39;5.40;99.90
75321;DHT22;68337;52.196;5.660;2023-04-25T06:07:05;5.50;99.90
75321;DHT22;68337;52.196;5.660;2023-04-25T06:09:31;5.60;99.90
75321;DHT22;68337;52.196;5.660;2023-04-25T06:11:56;5.70;99.90
75321;DHT22;68337;52.196;5.660;2023-04-25T06:14:22;5.80;99.90
75321;DHT22;68337;52.196;5.660;2023-04-25T06:16:48;5.80;99.90
75321;DHT22;68337;52.196;5.660;2023-04-25T06:19:13;5.90;99.90
75321;DHT22;68337;52.196;5.660;2023-04-25T06:21:39;5.90;99.90
75321;DHT22;68337;52.196;5.660;2023-04-25T06:24:05;6.00;99.90
75321;DHT22;68337;52.196;5.660;2023-04-25T06:26:31;6.10;99.90
75321;DHT22;68337;52.196;5.660;2023-04-25T06:28:56;6.10;99.90
75321;DHT22;68337;52.196;5.660;2023-04-25T06:31:22;6.10;99.90
75321;DHT22;68337;52.196;5.660;2023-04-25T06:33:48;6.10;99.90
75321;DHT22;68337;52.196;5.660;2023-04-25T06:36:13;6.30;99.90
75321;DHT22;68337;52.196;5.660;2023-04-25T06:38:39;6.50;99.90
75321;DHT22;68337;52.196;5.660;2023-04-25T06:41:05;6.80;99.90
75321;DHT22;68337;52.196;5.660;2023-04-25T06:43:31;7.10;99.90
75321;DHT22;68337;52.196;5.660;2023-04-25T06:45:59;7.20;99.90
75321;DHT22;68337;52.196;5.660;2023-04-25T06:48:26;7.50;99.90
75321;DHT22;68337;52.196;5.660;2023-04-25T06:50:52;7.70;99.90
75321;DHT22;68337;52.196;5.660;2023-04-25T06:53:18;7.80;99.90
75321;DHT22;68337;52.196;5.660;2023-04-25T06:55:44;8.10;99.90
75321;DHT22;68337;52.196;5.660;2023-04-25T06:58:09;8.30;99.90
75321;DHT22;68337;52.196;5.660;2023-04-25T07:00:35;8.30;99.90
75321;DHT22;68337;52.196;5.660;2023-04-25T07:03:01;8.60;99.90
75321;DHT22;68337;52.196;5.660;2023-04-25T07:05:27;8.60;99.90
75321;DHT22;68337;52.196;5.660;2023-04-25T07:07:53;8.50;99.90
75321;DHT22;68337;52.196;5.660;2023-04-25T07:10:18;8.60;99.90
75321;DHT22;68337;52.196;5.660;2023-04-25T07:12:44;8.40;99.90
75321;DHT22;68337;52.196;5.660;2023-04-25T07:15:10;8.10;99.90
75321;DHT22;68337;52.196;5.660;2023-04-25T07:17:37;7.90;99.90
75321;DHT22;68337;52.196;5.660;2023-04-25T07:20:03;7.90;99.90
75321;DHT22;68337;52.196;5.660;2023-04-25T07:22:29;8.00;99.90
75321;DHT22;68337;52.196;5.660;2023-04-25T07:24:55;8.30;99.90
75321;DHT22;68337;52.196;5.660;2023-04-25T07:27:21;8.50;99.90
75321;DHT22;68337;52.196;5.660;2023-04-25T07:29:46;8.70;99.90
75321;DHT22;68337;52.196;5.660;2023-04-25T07:32:12;8.90;99.90
75321;DHT22;68337;52.196;5.660;2023-04-25T07:34:39;8.90;99.90
75321;DHT22;68337;52.196;5.660;2023-04-25T07:37:05;9.10;99.90
75321;DHT22;68337;52.196;5.660;2023-04-25T07:39:31;9.20;99.90
75321;DHT22;68337;52.196;5.660;2023-04-25T07:41:56;9.40;99.90
75321;DHT22;68337;52.196;5.660;2023-04-25T07:44:24;9.50;99.90
75321;DHT22;68337;52.196;5.660;2023-04-25T07:46:50;9.40;99.90
75321;DHT22;68337;52.196;5.660;2023-04-25T07:49:16;9.00;99.90
75321;DHT22;68337;52.196;5.660;2023-04-25T07:51:42;8.70;99.90
75321;DHT22;68337;52.196;5.660;2023-04-25T07:54:09;8.60;99.90
75321;DHT22;68337;52.196;5.660;2023-04-25T07:56:35;8.40;99.90
75321;DHT22;68337;52.196;5.660;2023-04-25T07:59:01;8.40;99.90
75321;DHT22;68337;52.196;5.660;2023-04-25T08:01:26;8.30;99.90
75321;DHT22;68337;52.196;5.660;2023-04-25T08:03:52;8.20;99.90
75321;DHT22;68337;52.196;5.660;2023-04-25T08:06:18;8.10;99.90
75321;DHT22;68337;52.196;5.660;2023-04-25T08:08:44;8.20;99.90
75321;DHT22;68337;52.196;5.660;2023-04-25T08:11:10;8.40;99.90
75321;DHT22;68337;52.196;5.660;2023-04-25T08:13:36;8.40;99.90
75321;DHT22;68337;52.196;5.660;2023-04-25T08:16:02;8.40;99.90
75321;DHT22;68337;52.196;5.660;2023-04-25T08:18:27;8.20;99.90
75321;DHT22;68337;52.196;5.660;2023-04-25T08:20:53;8.50;99.90
75321;DHT22;68337;52.196;5.660;2023-04-25T08:23:19;8.70;99.90
75321;DHT22;68337;52.196;5.660;2023-04-25T08:25:44;8.80;99.90
75321;DHT22;68337;52.196;5.660;2023-04-25T08:28:10;8.80;99.90
75321;DHT22;68337;52.196;5.660;2023-04-25T08:30:36;8.60;99.90
75321;DHT22;68337;52.196;5.660;2023-04-25T08:33:02;8.50;99.90
75321;DHT22;68337;52.196;5.660;2023-04-25T08:35:28;8.50;99.90
75321;DHT22;68337;52.196;5.660;2023-04-25T08:37:54;8.60;99.90
75321;DHT22;68337;52.196;5.660;2023-04-25T08:40:22;8.70;99.90
75321;DHT22;68337;52.196;5.660;2023-04-25T08:42:54;8.80;99.90
75321;DHT22;68337;52.196;5.660;2023-04-25T08:45:21;9.10;99.90
75321;DHT22;68337;52.196;5.660;2023-04-25T08:47:47;9.50;99.90
75321;DHT22;68337;52.196;5.660;2023-04-25T08:50:14;10.00;99.90
75321;DHT22;68337;52.196;5.660;2023-04-25T08:52:44;10.00;99.90
75321;DHT22;68337;52.196;5.660;2023-04-25T08:55:12;9.80;99.90
75321;DHT22;68337;52.196;5.660;2023-04-25T08:57:42;9.80;99.90
75321;DHT22;68337;52.196;5.660;2023-04-25T09:00:09;10.00;99.90
75321;DHT22;68337;52.196;5.660;2023-04-25T09:02:35;10.20;99.90
75321;DHT22;68337;52.196;5.660;2023-04-25T09:05:02;10.30;99.90
75321;DHT22;68337;52.196;5.660;2023-04-25T09:07:30;10.70;99.90
75321;DHT22;68337;52.196;5.660;2023-04-25T09:09:55;10.50;99.90
75321;DHT22;68337;52.196;5.660;2023-04-25T09:12:21;10.40;99.90
75321;DHT22;68337;52.196;5.660;2023-04-25T09:15:08;10.80;99.90
75321;DHT22;68337;52.196;5.660;2023-04-25T09:17:34;10.80;99.90
75321;DHT22;68337;52.196;5.660;2023-04-25T09:20:13;10.80;99.90
75321;DHT22;68337;52.196;5.660;2023-04-25T09:22:38;10.70;99.90
75321;DHT22;68337;52.196;5.660;2023-04-25T09:25:12;11.00;99.90
75321;DHT22;68337;52.196;5.660;2023-04-25T09:27:50;10.90;99.90
75321;DHT22;68337;52.196;5.660;2023-04-25T09:30:17;11.60;99.90
75321;DHT22;68337;52.196;5.660;2023-04-25T09:32:43;11.30;99.90
75321;DHT22;68337;52.196;5.660;2023-04-25T09:35:09;10.60;99.90
75321;DHT22;68337;52.196;5.660;2023-04-25T09:37:35;10.50;99.90
75321;DHT22;68337;52.196;5.660;2023-04-25T09:40:05;11.10;99.90
75321;DHT22;68337;52.196;5.660;2023-04-25T09:42:31;11.20;99.90
75321;DHT22;68337;52.196;5.660;2023-04-25T09:45:00;10.90;99.90
75321;DHT22;68337;52.196;5.660;2023-04-25T09:47:27;10.40;99.90
75321;DHT22;68337;52.196;5.660;2023-04-25T09:49:54;10.20;99.90
75321;DHT22;68337;52.196;5.660;2023-04-25T09:52:25;9.90;99.90
75321;DHT22;68337;52.196;5.660;2023-04-25T09:54:51;9.20;99.90
75321;DHT22;68337;52.196;5.660;2023-04-25T09:57:19;9.10;99.90
75321;DHT22;68337;52.196;5.660;2023-04-25T09:59:50;9.10;99.90
75321;DHT22;68337;52.196;5.660;2023-04-25T10:02:21;9.10;99.90
75321;DHT22;68337;52.196;5.660;2023-04-25T10:04:49;9.30;99.90
75321;DHT22;68337;52.196;5.660;2023-04-25T10:07:19;9.30;99.90
75321;DHT22;68337;52.196;5.660;2023-04-25T10:09:48;9.30;99.90
75321;DHT22;68337;52.196;5.660;2023-04-25T10:12:17;9.60;99.90
75321;DHT22;68337;52.196;5.660;2023-04-25T10:14:44;9.50;99.90
75321;DHT22;68337;52.196;5.660;2023-04-25T10:17:11;10.10;99.90
75321;DHT22;68337;52.196;5.660;2023-04-25T10:19:37;10.70;99.90
75321;DHT22;68337;52.196;5.660;2023-04-25T10:22:04;11.40;99.90
75321;DHT22;68337;52.196;5.660;2023-04-25T10:24:31;11.50;99.90
75321;DHT22;68337;52.196;5.660;2023-04-25T10:26:58;11.30;99.90
75321;DHT22;68337;52.196;5.660;2023-04-25T10:29:26;11.20;99.90
75321;DHT22;68337;52.196;5.660;2023-04-25T10:31:53;11.30;99.90
75321;DHT22;68337;52.196;5.660;2023-04-25T10:34:19;11.00;99.90
75321;DHT22;68337;52.196;5.660;2023-04-25T10:36:50;11.40;99.90
75321;DHT22;68337;52.196;5.660;2023-04-25T10:39:24;11.30;99.90
75321;DHT22;68337;52.196;5.660;2023-04-25T10:41:55;11.60;99.90
75321;DHT22;68337;52.196;5.660;2023-04-25T10:44:21;12.00;99.90
75321;DHT22;68337;52.196;5.660;2023-04-25T10:46:47;12.30;99.90
75321;DHT22;68337;52.196;5.660;2023-04-25T10:49:48;12.50;99.90
75321;DHT22;68337;52.196;5.660;2023-04-25T10:52:26;13.00;99.90
75321;DHT22;68337;52.196;5.660;2023-04-25T10:54:54;13.00;99.90
75321;DHT22;68337;52.196;5.660;2023-04-25T10:57:46;13.10;98.00
75321;DHT22;68337;52.196;5.660;2023-04-25T11:00:19;12.90;95.40
75321;DHT22;68337;52.196;5.660;2023-04-25T11:02:58;13.00;98.40
75321;DHT22;68337;52.196;5.660;2023-04-25T11:05:33;13.60;99.90
75321;DHT22;68337;52.196;5.660;2023-04-25T11:08:00;12.80;99.90
75321;DHT22;68337;52.196;5.660;2023-04-25T11:10:27;12.80;99.90
75321;DHT22;68337;52.196;5.660;2023-04-25T11:12:53;13.00;99.90
75321;DHT22;68337;52.196;5.660;2023-04-25T11:15:19;12.60;99.40
75321;DHT22;68337;52.196;5.660;2023-04-25T11:17:44;12.10;99.90
75321;DHT22;68337;52.196;5.660;2023-04-25T11:20:12;12.60;99.90
75321;DHT22;68337;52.196;5.660;2023-04-25T11:22:39;12.80;99.90
75321;DHT22;68337;52.196;5.660;2023-04-25T11:25:09;12.80;99.90
75321;DHT22;68337;52.196;5.660;2023-04-25T11:27:38;12.60;99.90
75321;DHT22;68337;52.196;5.660;2023-04-25T11:30:14;11.90;99.90
75321;DHT22;68337;52.196;5.660;2023-04-25T11:32:41;11.20;99.90
75321;DHT22;68337;52.196;5.660;2023-04-25T11:35:08;10.90;99.90
75321;DHT22;68337;52.196;5.660;2023-04-25T11:37:33;10.70;99.90
75321;DHT22;68337;52.196;5.660;2023-04-25T11:40:00;10.70;99.90
75321;DHT22;68337;52.196;5.660;2023-04-25T11:42:26;11.20;99.90
75321;DHT22;68337;52.196;5.660;2023-04-25T11:44:52;11.60;99.90
75321;DHT22;68337;52.196;5.660;2023-04-25T11:47:17;12.10;99.90
75321;DHT22;68337;52.196;5.660;2023-04-25T11:49:43;12.20;99.90
75321;DHT22;68337;52.196;5.660;2023-04-25T11:52:09;12.00;99.90
75321;DHT22;68337;52.196;5.660;2023-04-25T11:54:36;11.40;99.90
75321;DHT22;68337;52.196;5.660;2023-04-25T11:57:03;11.20;99.90
75321;DHT22;68337;52.196;5.660;2023-04-25T11:59:29;11.20;99.90
75321;DHT22;68337;52.196;5.660;2023-04-25T12:01:55;11.10;99.90
75321;DHT22;68337;52.196;5.660;2023-04-25T12:04:24;10.80;99.90
75321;DHT22;68337;52.196;5.660;2023-04-25T12:06:52;10.90;99.90
75321;DHT22;68337;52.196;5.660;2023-04-25T12:09:29;11.30;99.90
75321;DHT22;68337;52.196;5.660;2023-04-25T12:11:58;12.00;99.90
75321;DHT22;68337;52.196;5.660;2023-04-25T12:14:26;12.30;99.90
75321;DHT22;68337;52.196;5.660;2023-04-25T12:16:55;12.20;99.90
75321;DHT22;68337;52.196;5.660;2023-04-25T12:19:21;11.80;98.10
75321;DHT22;68337;52.196;5.660;2023-04-25T12:21:48;11.40;99.90
75321;DHT22;68337;52.196;5.660;2023-04-25T12:27:05;10.90;98.20
75321;DHT22;68337;52.196;5.660;2023-04-25T12:29:32;10.60;99.90
75321;DHT22;68337;52.196;5.660;2023-04-25T12:31:58;10.80;99.90
75321;DHT22;68337;52.196;5.660;2023-04-25T12:34:25;10.80;99.90
75321;DHT22;68337;52.196;5.660;2023-04-25T12:36:52;10.80;99.90
75321;DHT22;68337;52.196;5.660;2023-04-25T12:39:20;11.50;99.30
75321;DHT22;68337;52.196;5.660;2023-04-25T12:41:50;12.20;97.00
75321;DHT22;68337;52.196;5.660;2023-04-25T12:44:19;13.10;96.20
75321;DHT22;68337;52.196;5.660;2023-04-25T12:46:45;12.70;93.30
75321;DHT22;68337;52.196;5.660;2023-04-25T12:49:11;12.10;99.30
75321;DHT22;68337;52.196;5.660;2023-04-25T12:51:37;11.70;99.90
75321;DHT22;68337;52.196;5.660;2023-04-25T12:54:04;11.60;99.90
75321;DHT22;68337;52.196;5.660;2023-04-25T12:56:30;11.70;99.90
75321;DHT22;68337;52.196;5.660;2023-04-25T12:58:56;12.20;99.90
75321;DHT22;68337;52.196;5.660;2023-04-25T13:01:23;11.90;99.40
75321;DHT22;68337;52.196;5.660;2023-04-25T13:03:48;11.30;99.90
75321;DHT22;68337;52.196;5.660;2023-04-25T13:06:15;11.20;99.90
75321;DHT22;68337;52.196;5.660;2023-04-25T13:08:41;11.10;99.90
75321;DHT22;68337;52.196;5.660;2023-04-25T13:11:07;11.10;99.90
75321;DHT22;68337;52.196;5.660;2023-04-25T13:13:33;11.60;99.90
75321;DHT22;68337;52.196;5.660;2023-04-25T13:16:04;12.10;99.90
75321;DHT22;68337;52.196;5.660;2023-04-25T13:18:30;12.20;99.90
75321;DHT22;68337;52.196;5.660;2023-04-25T13:20:57;11.30;99.90
75321;DHT22;68337;52.196;5.660;2023-04-25T13:23:24;11.20;99.90
75321;DHT22;68337;52.196;5.660;2023-04-25T13:25:50;10.90;99.90
75321;DHT22;68337;52.196;5.660;2023-04-25T13:28:16;10.70;99.90
75321;DHT22;68337;52.196;5.660;2023-04-25T13:30:42;10.70;99.90
75321;DHT22;68337;52.196;5.660;2023-04-25T13:33:08;10.80;99.90
75321;DHT22;68337;52.196;5.660;2023-04-25T13:35:36;10.60;99.90
75321;DHT22;68337;52.196;5.660;2023-04-25T13:38:03;10.60;99.90
75321;DHT22;68337;52.196;5.660;2023-04-25T13:40:28;10.50;99.90
75321;DHT22;68337;52.196;5.660;2023-04-25T13:42:55;10.40;99.90
75321;DHT22;68337;52.196;5.660;2023-04-25T13:45:21;10.30;99.90
75321;DHT22;68337;52.196;5.660;2023-04-25T13:47:47;10.50;99.90
75321;DHT22;68337;52.196;5.660;2023-04-25T13:50:13;10.90;99.90
75321;DHT22;68337;52.196;5.660;2023-04-25T13:52:39;11.70;99.90
75321;DHT22;68337;52.196;5.660;2023-04-25T13:55:06;11.90;99.90
75321;DHT22;68337;52.196;5.660;2023-04-25T13:57:33;12.20;99.90
75321;DHT22;68337;52.196;5.660;2023-04-25T13:59:59;12.70;99.90
75321;DHT22;68337;52.196;5.660;2023-04-25T14:02:25;12.90;99.90
75321;DHT22;68337;52.196;5.660;2023-04-25T14:04:51;12.80;97.60
75321;DHT22;68337;52.196;5.660;2023-04-25T14:07:18;12.50;99.50
75321;DHT22;68337;52.196;5.660;2023-04-25T14:09:46;12.10;99.90
75321;DHT22;68337;52.196;5.660;2023-04-25T14:12:12;11.80;99.90
75321;DHT22;68337;52.196;5.660;2023-04-25T14:14:38;11.40;99.90
75321;DHT22;68337;52.196;5.660;2023-04-25T14:17:03;11.20;99.90
75321;DHT22;68337;52.196;5.660;2023-04-25T14:19:29;11.00;99.90
75321;DHT22;68337;52.196;5.660;2023-04-25T14:21:55;10.70;99.90
75321;DHT22;68337;52.196;5.660;2023-04-25T14:24:21;10.70;99.90
75321;DHT22;68337;52.196;5.660;2023-04-25T14:26:47;10.70;99.90
75321;DHT22;68337;52.196;5.660;2023-04-25T14:29:13;10.80;99.90
75321;DHT22;68337;52.196;5.660;2023-04-25T14:31:39;11.40;99.90
75321;DHT22;68337;52.196;5.660;2023-04-25T14:34:05;11.60;99.90
75321;DHT22;68337;52.196;5.660;2023-04-25T14:36:32;11.40;99.90
75321;DHT22;68337;52.196;5.660;2023-04-25T14:38:58;10.80;99.90
75321;DHT22;68337;52.196;5.660;2023-04-25T14:41:24;10.50;99.90
75321;DHT22;68337;52.196;5.660;2023-04-25T14:43:51;10.30;99.90
75321;DHT22;68337;52.196;5.660;2023-04-25T14:46:19;10.10;99.90
75321;DHT22;68337;52.196;5.660;2023-04-25T14:48:45;9.90;99.90
75321;DHT22;68337;52.196;5.660;2023-04-25T14:51:11;9.90;99.90
75321;DHT22;68337;52.196;5.660;2023-04-25T14:53:37;10.10;99.90
75321;DHT22;68337;52.196;5.660;2023-04-25T14:56:03;10.00;99.90
75321;DHT22;68337;52.196;5.660;2023-04-25T14:58:28;9.80;99.90
75321;DHT22;68337;52.196;5.660;2023-04-25T15:00:54;9.70;99.90
75321;DHT22;68337;52.196;5.660;2023-04-25T15:03:20;9.80;99.90
75321;DHT22;68337;52.196;5.660;2023-04-25T15:05:46;9.90;99.90
75321;DHT22;68337;52.196;5.660;2023-04-25T15:08:12;10.30;99.90
75321;DHT22;68337;52.196;5.660;2023-04-25T15:10:37;10.70;99.90
75321;DHT22;68337;52.196;5.660;2023-04-25T15:13:03;10.80;99.90
75321;DHT22;68337;52.196;5.660;2023-04-25T15:15:29;10.90;99.90
75321;DHT22;68337;52.196;5.660;2023-04-25T15:17:55;11.10;99.90
75321;DHT22;68337;52.196;5.660;2023-04-25T15:20:21;11.00;99.90
75321;DHT22;68337;52.196;5.660;2023-04-25T15:22:47;11.10;99.50
75321;DHT22;68337;52.196;5.660;2023-04-25T15:25:15;11.10;99.90
75321;DHT22;68337;52.196;5.660;2023-04-25T15:27:43;11.30;99.30
75321;DHT22;68337;52.196;5.660;2023-04-25T15:30:12;11.20;95.40
75321;DHT22;68337;52.196;5.660;2023-04-25T15:32:44;11.20;96.10
75321;DHT22;68337;52.196;5.660;2023-04-25T15:35:12;11.30;91.30
75321;DHT22;68337;52.196;5.660;2023-04-25T15:37:39;11.30;90.40
75321;DHT22;68337;52.196;5.660;2023-04-25T15:40:18;11.40;92.10